Domov               UVHVVR             MKGP            O straneh              
ZDRAVSTVENO VARSTVO RASTLIN
  MREŽA AGROMET. POSTAJ
 ► PROGNOSTIČNA OBVESTILA
AGROMETEOROLOŠKI PODATKI -
ARSO
OBVLADOVANJE TVEGANJ ZARADI
NEUGODNIH VREMENSKIH RAZMER
  ► NARAVNE NESREČE
  ► SUŠA/MOČA
  ► NAMAKANJE
  ► ŽLED (gozdarstvo)
KARTOGRAFSKI PRIKAZI
SPLETNE POVEZAVE
PROJEKTI IN PUBLIKACIJE

AGROMETEOROLOŠKA MREŽA: VREMENSKE POSTAJE IN FENOLOŠKA OPAZOVANJA

Pregled podatkov za lokacijo Maribor - BTŠ, meteorološka postaja 35810

Pregled senzorjev na lokaciji

ID Ime Zadnja
vrednost
Datum in čas
zadnje
spremembe
(Lokalni čas)
Tip
senzorja
4297 Omočenost lista (U) 6 U 18.10.2019 19:00 A730WET
1723 Padavine (mm) 0 mm 18.10.2019 18:59 Generic 0.2 mm
1722 Relativna vlaga 2 m (% RH) 91.77 % RH 18.10.2019 19:00 Generic 0 - 100 %
1721 Temperatura 2 m (°C) 12.6 °C 18.10.2019 19:00 Generic -40 - +60 °C
4296 Smer vetra (°) 229.01 ° 18.10.2019 19:00 Generic 0 - 360
4295 Hitrost vetra (km/h) 0.37 km/h 18.10.2019 19:00 Generic 100 km/h

Pregled podatkov zadnjih 24 ur

Zap.
št.
Datum in čas
(Centralno
evropski čas)
Maribor - BTŠ
Omočenost
lista
Padavine Relativna
vlaga
2
m
Temperatura
2
m
Smer
vetra
Hitrost
vetra
1 18.10.2019 19:00
2 18.10.2019 18:30
3 18.10.2019 18:00
4 18.10.2019 17:30 2 0 87.8 14.2 67.4 0.3
5 18.10.2019 17:00 0 0 77.7 16.7 329.6 0.7
6 18.10.2019 16:30 0 0 69.6 18.9 269.9 0.9
7 18.10.2019 16:00 0 0 59.5 20.8 103.4 1.1
8 18.10.2019 15:30 0 0 60.3 21.3 115.6 1.2
9 18.10.2019 15:00 0 0 60.3 20.7 100.8 1
10 18.10.2019 14:30 0 0 52.3 21.7 130.9 1
11 18.10.2019 14:00 0 0 54.9 21.5 138.4 1.2
12 18.10.2019 13:30 0 0 57.3 20.8 69.2 1.4
13 18.10.2019 13:00 0 0 57.6 21.2 123.2 1.3
14 18.10.2019 12:30 0 0 57.6 20.8 94.9 1.6
15 18.10.2019 12:00 0 0 61.2 20.3 41.6 1.3
16 18.10.2019 11:30 0 0 62.1 19.6 60.1 1.4
17 18.10.2019 11:00 0 0 65.1 18.4 43 1.5
18 18.10.2019 10:30 0 0 67.6 17.4 309.9 1.3
19 18.10.2019 10:00 1 0 72.3 16.6 132.4 1.5
20 18.10.2019 09:30 10 0 76.5 15.3 111.2 1.2
21 18.10.2019 09:00 10 0 85.3 14 122.5 0.7
22 18.10.2019 08:30 10 0 98.3 10.8 13.8 0.3
23 18.10.2019 08:00 10 0 98.5 8.9 294.9 0.3
24 18.10.2019 07:30 10 0 98.5 7.2 267.4 0.1
25 18.10.2019 07:00 10 0 98.4 5.9 272.3 0.2
26 18.10.2019 06:30 10 0 98.3 5.5 274.5 0.4
27 18.10.2019 06:00 10 0 98.2 5.4 233.2 0.1
28 18.10.2019 05:30 10 0 98.1 5.4 238.1 0
29 18.10.2019 05:00 10 0 98.1 5.6 265.3 0.5
30 18.10.2019 04:30 10 0 98.1 5.9 241.7 0.5
31 18.10.2019 04:00 10 0 98 5.8 254.6 0.2
32 18.10.2019 03:30 10 0 97.9 6.1 342.3 0.3
33 18.10.2019 03:00 10 0 97.8 6 282 0.1
34 18.10.2019 02:30 10 0 97.6 6.2 260.7 0.4
35 18.10.2019 02:00 10 0 97.4 6.4 49.6 0.3
36 18.10.2019 01:30 10 0 97.3 7 245.1 0.2
37 18.10.2019 01:00 10 0 97 7.6 302.9 0.3
38 18.10.2019 00:30 10 0 97 8.7 158.9 0.9
39 18.10.2019 00:00 10 0 97.8 9.5 273.4 2.2
40 17.10.2019 23:30 10 0 97.6 7.5 290.5 0.5
41 17.10.2019 23:00 10 0 97.5 7.3 133.9 0.4
42 17.10.2019 22:30 10 0 97.3 7.6 149.1 0.3
43 17.10.2019 22:00 10 0 97.1 7.9 39.1 0.5
44 17.10.2019 21:30 10 0 96.9 8.3 280.3 0.3
45 17.10.2019 21:00 10 0 96.7 8.6 259.4 0.4
46 17.10.2019 20:30 10 0 96.3 9 183.9 0.6
47 17.10.2019 20:00 10 0 95.9 9.4 43.9 0.4
48 17.10.2019 19:30 10 0 95 9.6 298 0.4
© 2011 Ministrstvo za kmetijstvo, gozdarstvo in prehrano. Vse pravice pridržane.